地図

経路データ

SID SEASON NUMBER BASIN SUBBASIN NAME ISO_TIME NATURE LAT LON WMO_WIND WMO_PRES WMO_AGENCY TRACK_TYPE DIST2LAND LANDFALL IFLAG USA_AGENCY USA_ATCF_ID USA_LAT USA_LON USA_RECORD USA_STATUS USA_WIND USA_PRES USA_SSHS USA_R34_NE USA_R34_SE USA_R34_SW USA_R34_NW USA_R50_NE USA_R50_SE USA_R50_SW USA_R50_NW USA_R64_NE USA_R64_SE USA_R64_SW USA_R64_NW USA_POCI USA_ROCI USA_RMW USA_EYE TOKYO_LAT TOKYO_LON TOKYO_GRADE TOKYO_WIND TOKYO_PRES TOKYO_R50_DIR TOKYO_R50_LONG TOKYO_R50_SHORT TOKYO_R30_DIR TOKYO_R30_LONG TOKYO_R30_SHORT TOKYO_LAND CMA_LAT CMA_LON CMA_CAT CMA_WIND CMA_PRES HKO_LAT HKO_LON HKO_CAT HKO_WIND HKO_PRES NEWDELHI_LAT NEWDELHI_LON NEWDELHI_GRADE NEWDELHI_WIND NEWDELHI_PRES NEWDELHI_CI NEWDELHI_DP NEWDELHI_POCI REUNION_LAT REUNION_LON REUNION_TYPE REUNION_WIND REUNION_PRES REUNION_TNUM REUNION_CI REUNION_RMW REUNION_R34_NE REUNION_R34_SE REUNION_R34_SW REUNION_R34_NW REUNION_R50_NE REUNION_R50_SE REUNION_R50_SW REUNION_R50_NW REUNION_R64_NE REUNION_R64_SE REUNION_R64_SW REUNION_R64_NW BOM_LAT BOM_LON BOM_TYPE BOM_WIND BOM_PRES BOM_TNUM BOM_CI BOM_RMW BOM_R34_NE BOM_R34_SE BOM_R34_SW BOM_R34_NW BOM_R50_NE BOM_R50_SE BOM_R50_SW BOM_R50_NW BOM_R64_NE BOM_R64_SE BOM_R64_SW BOM_R64_NW BOM_ROCI BOM_POCI BOM_EYE BOM_POS_METHOD BOM_PRES_METHOD NADI_LAT NADI_LON NADI_CAT NADI_WIND NADI_PRES WELLINGTON_LAT WELLINGTON_LON WELLINGTON_WIND WELLINGTON_PRES DS824_LAT DS824_LON DS824_STAGE DS824_WIND DS824_PRES TD9636_LAT TD9636_LON TD9636_STAGE TD9636_WIND TD9636_PRES TD9635_LAT TD9635_LON TD9635_WIND TD9635_PRES TD9635_ROCI NEUMANN_LAT NEUMANN_LON NEUMANN_CLASS NEUMANN_WIND NEUMANN_PRES MLC_LAT MLC_LON MLC_CLASS MLC_WIND MLC_PRES USA_GUST BOM_GUST BOM_GUST_PER REUNION_GUST REUNION_GUST_PER USA_SEAHGT USA_SEARAD_NE USA_SEARAD_SE USA_SEARAD_SW USA_SEARAD_NW STORM_SPEED STORM_DIR
1915069S13153 1915 10 SP EA NOT_NAMED 1915-03-09 23:00:00 NR -13.0000 152.900 bom main 360 360 ______O_______ -1 -13.0000 152.900 3 229
1915069S13153 1915 10 SP EA NOT_NAMED 1915-03-10 00:00:00 TS -13.0260 152.853 main 360 352 ______P__O____ -1 -13.0389 152.879 -13.0000 152.800 TC 3 222
1915069S13153 1915 10 SP EA NOT_NAMED 1915-03-10 03:00:00 TS -13.1410 152.773 main 361 361 ______P__P____ -1 -13.1556 152.813 -13.1192 152.712 TC 3 216
1915069S13153 1915 10 SP EA NOT_NAMED 1915-03-10 06:00:00 TS -13.2572 152.682 main 372 366 ______P__P____ -1 -13.2717 152.733 -13.2377 152.614 TC 3 222
1915069S13153 1915 10 SP EA NOT_NAMED 1915-03-10 09:00:00 TS -13.3710 152.563 main 375 369 ______P__P____ -1 -13.3870 152.628 -13.3550 152.497 TC 3 228
1915069S13153 1915 10 SP EA NOT_NAMED 1915-03-10 12:00:00 TS -13.4857 152.420 main 373 368 ______P__P____ -1 -13.5009 152.488 -13.4705 152.352 TC 4 235
1915069S13153 1915 10 SP EA NOT_NAMED 1915-03-10 15:00:00 TS -13.5982 152.236 main 373 368 ______P__P____ -1 -13.6131 152.302 -13.5834 152.170 TC 5 242
1915069S13153 1915 10 SP EA NOT_NAMED 1915-03-10 18:00:00 TS -13.7081 152.000 main 374 370 ______P__P____ -1 -13.7231 152.059 -13.6931 151.940 TC 6 247
1915069S13153 1915 10 SP EA NOT_NAMED 1915-03-10 21:00:00 TS -13.8146 151.701 main 374 370 ______P__P____ -1 -13.8304 151.749 -13.7989 151.653 TC 7 251
1915069S13153 1915 10 SP EA NOT_NAMED 1915-03-10 23:00:00 TS -13.8834 151.463 bom main 377 374 ______O__P____ -1 -13.9000 151.500 -13.8669 151.426 TC 7 254
1915069S13153 1915 10 SP EA NOT_NAMED 1915-03-11 00:00:00 TS -13.9171 151.331 main 371 368 ______P__O____ -1 -13.9342 151.362 -13.9000 151.300 TC 9 257
1915069S13153 1915 10 SP EA NOT_NAMED 1915-03-11 03:00:00 TS -14.0152 150.888 main 373 370 ______P__P____ -1 -14.0345 150.899 -13.9959 150.877 TC 9 258
1915069S13153 1915 10 SP EA NOT_NAMED 1915-03-11 06:00:00 TS -14.1101 150.394 main 380 380 ______P__P____ -1 -14.1321 150.386 -14.0882 150.401 TC 10 259
1915069S13153 1915 10 SP EA NOT_NAMED 1915-03-11 09:00:00 TS -14.2036 149.874 main 393 393 ______P__P____ -1 -14.2281 149.849 -14.1790 149.898 TC 10 259
1915069S13153 1915 10 SP EA NOT_NAMED 1915-03-11 12:00:00 TS -14.2973 149.353 main 412 389 ______P__P____ -1 -14.3239 149.315 -14.2707 149.391 TC 10 259
1915069S13153 1915 10 SP EA NOT_NAMED 1915-03-11 15:00:00 TS -14.3934 148.856 main 389 334 ______P__P____ -1 -14.4210 148.809 -14.3658 148.903 TC 9 258
1915069S13153 1915 10 SP EA NOT_NAMED 1915-03-11 18:00:00 TS -14.4941 148.409 main 334 300 ______P__P____ -1 -14.5211 148.358 -14.4671 148.459 TC 8 255
1915069S13153 1915 10 SP EA NOT_NAMED 1915-03-11 21:00:00 TS -14.6018 148.036 main 290 276 ______P__P____ -1 -14.6261 147.988 -14.5775 148.084 TC 7 251
1915069S13153 1915 10 SP EA NOT_NAMED 1915-03-11 23:00:00 TS -14.6788 147.841 988 bom main 266 266 ______O__P____ -1 -14.7000 147.800 988 4 -14.6576 147.883 TC 6 246
1915069S13153 1915 10 SP EA NOT_NAMED 1915-03-12 00:00:00 TS -14.7188 147.765 main 266 242 ______P__O____ -1 -14.7376 147.730 -14.7000 147.800 TC 50 988 4 234
1915069S13153 1915 10 SP EA NOT_NAMED 1915-03-12 03:00:00 TS -14.8496 147.598 main 242 227 ______P__P____ -1 -14.8546 147.577 -14.8447 147.619 TC 4 223
1915069S13153 1915 10 SP EA NOT_NAMED 1915-03-12 06:00:00 TS -14.9879 147.506 main 227 226 ______P__P____ -1 -14.9781 147.498 -14.9976 147.514 TC 3 201
1915069S13153 1915 10 SP EA NOT_NAMED 1915-03-12 09:00:00 TS -15.1303 147.479 main 226 225 ______P__P____ -1 -15.1087 147.482 -15.1518 147.476 TC 3 0
1915069S13153 1915 10 SP EA NOT_NAMED 1915-03-12 11:00:00 TS -15.2259 147.493 bom main 225 225 ______O__P____ -1 -15.2000 147.500 -15.2517 147.486 TC 3 0
1915069S13153 1915 10 SP EA NOT_NAMED 1915-03-12 12:00:00 TS -15.2745 147.503 main 225 225 ______P__O____ -1 -15.2489 147.507 -15.3000 147.500 TC 3 161
1915069S13153 1915 10 SP EA NOT_NAMED 1915-03-12 15:00:00 TS -15.4200 147.562 main 236 234 ______P__P____ -1 -15.4022 147.564 -15.4378 147.561 TC 3 151
1915069S13153 1915 10 SP EA NOT_NAMED 1915-03-12 18:00:00 TS -15.5631 147.672 main 241 241 ______P__P____ -1 -15.5582 147.666 -15.5679 147.677 TC 4 139
1915069S13153 1915 10 SP EA NOT_NAMED 1915-03-12 21:00:00 TS -15.6985 147.815 main 249 249 ______P__P____ -1 -15.7080 147.800 -15.6891 147.830 TC 4 132
1915069S13153 1915 10 SP EA NOT_NAMED 1915-03-12 23:00:00 TS -15.7821 147.921 bom main 252 252 ______O__P____ -1 -15.8000 147.900 -15.7642 147.943 TC 4 129
1915069S13153 1915 10 SP EA NOT_NAMED 1915-03-13 00:00:00 TS -15.8201 147.972 main 261 255 ______P__O____ -1 -15.8402 147.945 -15.8000 148.000 TC 4 127
1915069S13153 1915 10 SP EA NOT_NAMED 1915-03-13 03:00:00 TS -15.9254 148.119 main 265 265 ______P__P____ -1 -15.9490 148.093 -15.9019 148.145 TC 4 124
1915069S13153 1915 10 SP EA NOT_NAMED 1915-03-13 06:00:00 TS -16.0172 148.279 main 279 279 ______P__P____ -1 -16.0418 148.258 -15.9927 148.299 TC 4 119
1915069S13153 1915 10 SP EA NOT_NAMED 1915-03-13 09:00:00 TS -16.0977 148.448 main 284 284 ______P__P____ -1 -16.1214 148.436 -16.0741 148.460 TC 4 115
1915069S13153 1915 10 SP EA NOT_NAMED 1915-03-13 12:00:00 TS -16.1692 148.624 main 298 298 ______P__P____ -1 -16.1906 148.622 -16.1478 148.626 TC 4 112
1915069S13153 1915 10 SP EA NOT_NAMED 1915-03-13 15:00:00 TS -16.2339 148.803 main 317 317 ______P__P____ -1 -16.2522 148.811 -16.2155 148.795 TC 4 110
1915069S13153 1915 10 SP EA NOT_NAMED 1915-03-13 18:00:00 TS -16.2939 148.983 main 332 332 ______P__P____ -1 -16.3088 149.000 -16.2790 148.965 TC 4 109
1915069S13153 1915 10 SP EA NOT_NAMED 1915-03-13 21:00:00 TS -16.3517 149.159 main 348 348 ______P__P____ -1 -16.3634 149.183 -16.3399 149.134 TC 4 109
1915069S13153 1915 10 SP EA NOT_NAMED 1915-03-13 23:00:00 TS -16.3900 149.273 bom main 358 358 ______O__P____ -1 -16.4000 149.300 -16.3800 149.245 TC 3 111
1915069S13153 1915 10 SP EA NOT_NAMED 1915-03-14 00:00:00 TS -16.4113 149.324 main 358 358 ______P__O____ -1 -16.4226 149.349 -16.4000 149.300 TC 3 115
1915069S13153 1915 10 SP EA NOT_NAMED 1915-03-14 03:00:00 TS -16.4779 149.470 main 375 375 ______P__P____ -1 -16.4887 149.490 -16.4670 149.449 TC 3 116
1915069S13153 1915 10 SP EA NOT_NAMED 1915-03-14 06:00:00 TS -16.5424 149.610 main 385 382 ______P__P____ -1 -16.5530 149.625 -16.5319 149.595 TC 3 116
1915069S13153 1915 10 SP EA NOT_NAMED 1915-03-14 09:00:00 TS -16.6054 149.748 main 393 393 ______P__P____ -1 -16.6157 149.756 -16.5951 149.740 TC 3 115
1915069S13153 1915 10 SP EA NOT_NAMED 1915-03-14 12:00:00 TS -16.6672 149.886 main 401 401 ______P__P____ -1 -16.6773 149.886 -16.6570 149.885 TC 3 115
1915069S13153 1915 10 SP EA NOT_NAMED 1915-03-14 15:00:00 TS -16.7282 150.025 main 408 405 ______P__P____ -1 -16.7382 150.018 -16.7181 150.032 TC 3 114
1915069S13153 1915 10 SP EA NOT_NAMED 1915-03-14 18:00:00 TS -16.7887 150.169 main 410 410 ______P__P____ -1 -16.7988 150.155 -16.7787 150.183 TC 3 113
1915069S13153 1915 10 SP EA NOT_NAMED 1915-03-14 21:00:00 TS -16.8493 150.318 main 415 405 ______P__P____ -1 -16.8594 150.299 -16.8392 150.338 TC 3 112
1915069S13153 1915 10 SP EA NOT_NAMED 1915-03-14 23:00:00 TS -16.8898 150.423 bom main 411 411 ______O__P____ -1 -16.9000 150.400 -16.8797 150.445 TC 3 112
1915069S13153 1915 10 SP EA NOT_NAMED 1915-03-15 00:00:00 TS -16.9107 150.477 main 417 414 ______P__O____ -1 -16.9214 150.454 -16.9000 150.500 TC 3 112
1915069S13153 1915 10 SP EA NOT_NAMED 1915-03-15 03:00:00 TS -16.9751 150.646 main 414 414 ______P__P____ -1 -16.9859 150.622 -16.9643 150.670 TC 4 111
1915069S13153 1915 10 SP EA NOT_NAMED 1915-03-15 06:00:00 TS -17.0397 150.821 main 425 420 ______P__P____ -1 -17.0505 150.797 -17.0289 150.845 TC 4 111
1915069S13153 1915 10 SP EA NOT_NAMED 1915-03-15 09:00:00 TS -17.1041 151.003 main 426 422 ______P__P____ -1 -17.1148 150.980 -17.0934 151.026 TC 4 110
1915069S13153 1915 10 SP EA NOT_NAMED 1915-03-15 12:00:00 TS -17.1679 151.191 main 429 429 ______P__P____ -1 -17.1785 151.169 -17.1573 151.213 TC 4 109
1915069S13153 1915 10 SP EA NOT_NAMED 1915-03-15 15:00:00 TS -17.2307 151.383 main 441 433 ______P__P____ -1 -17.2411 151.363 -17.2203 151.403 TC 4 108
1915069S13153 1915 10 SP EA NOT_NAMED 1915-03-15 18:00:00 TS -17.2921 151.580 main 446 446 ______P__P____ -1 -17.3022 151.561 -17.2820 151.599 TC 4 108
1915069S13153 1915 10 SP EA NOT_NAMED 1915-03-15 21:00:00 TS -17.3518 151.780 main 452 452 ______P__P____ -1 -17.3616 151.763 -17.3420 151.798 TC 4 107
1915069S13153 1915 10 SP EA NOT_NAMED 1915-03-15 23:00:00 TS -17.3905 151.916 bom main 460 460 ______O__P____ -1 -17.4000 151.900 -17.3809 151.932 TC 4 108
1915069S13153 1915 10 SP EA NOT_NAMED 1915-03-16 00:00:00 TS -17.4115 151.981 main 467 467 ______P__O____ -1 -17.4231 151.962 -17.4000 152.000 TC 4 111
1915069S13153 1915 10 SP EA NOT_NAMED 1915-03-16 03:00:00 TS -17.4813 152.169 main 475 475 ______P__P____ -1 -17.4929 152.151 -17.4696 152.188 TC 4 111
1915069S13153 1915 10 SP EA NOT_NAMED 1915-03-16 06:00:00 TS -17.5503 152.360 main 484 484 ______P__P____ -1 -17.5616 152.342 -17.5390 152.378 TC 4 110
1915069S13153 1915 10 SP EA NOT_NAMED 1915-03-16 09:00:00 TS -17.6160 152.556 main 500 500 ______P__P____ -1 -17.6266 152.539 -17.6055 152.573 TC 4 108
1915069S13153 1915 10 SP EA NOT_NAMED 1915-03-16 12:00:00 TS -17.6757 152.759 main 511 511 ______P__P____ -1 -17.6850 152.744 -17.6664 152.774 TC 4 106
1915069S13153 1915 10 SP EA NOT_NAMED 1915-03-16 15:00:00 TS -17.7266 152.972 main 528 528 ______P__P____ -1 -17.7343 152.959 -17.7190 152.986 TC 4 102
1915069S13153 1915 10 SP EA NOT_NAMED 1915-03-16 18:00:00 TS -17.7661 153.198 main 540 540 ______P__P____ -1 -17.7716 153.186 -17.7607 153.209 TC 4 98
1915069S13153 1915 10 SP EA NOT_NAMED 1915-03-16 21:00:00 TS -17.7914 153.437 main 558 558 ______P__P____ -1 -17.7943 153.429 -17.7886 153.446 TC 5 95
1915069S13153 1915 10 SP EA NOT_NAMED 1915-03-16 23:00:00 TS -17.7991 153.607 bom main 576 576 ______O__P____ -1 -17.8000 153.600 -17.7982 153.613 TC 5 92
1915069S13153 1915 10 SP EA NOT_NAMED 1915-03-17 00:00:00 TS -17.7993 153.697 main 586 586 ______P__O____ -1 -17.7985 153.694 -17.8000 153.700 TC 5 88
1915069S13153 1915 10 SP EA NOT_NAMED 1915-03-17 03:00:00 TS -17.7859 153.990 main 613 613 ______P__P____ -1 -17.7822 153.990 -17.7895 153.991 TC 6 86
1915069S13153 1915 10 SP EA NOT_NAMED 1915-03-17 06:00:00 TS -17.7562 154.301 main 637 637 ______P__P____ -1 -17.7500 154.302 -17.7624 154.301 TC 6 83
1915069S13153 1915 10 SP EA NOT_NAMED 1915-03-17 09:00:00 TS -17.7130 154.624 main 664 664 ______P__P____ -1 -17.7048 154.625 -17.7213 154.623 TC 6 81
1915069S13153 1915 10 SP EA NOT_NAMED 1915-03-17 12:00:00 TS -17.6589 154.952 main 691 691 ______P__P____ -1 -17.6491 154.953 -17.6687 154.951 TC 6 79
1915069S13153 1915 10 SP EA NOT_NAMED 1915-03-17 15:00:00 TS -17.5966 155.279 main 720 720 ______P__P____ -1 -17.5856 155.279 -17.6076 155.279 TC 6 78
1915069S13153 1915 10 SP EA NOT_NAMED 1915-03-17 18:00:00 TS -17.5289 155.600 main 749 749 ______P__P____ -1 -17.5173 155.599 -17.5405 155.601 TC 6 77
1915069S13153 1915 10 SP EA NOT_NAMED 1915-03-17 21:00:00 TS -17.4586 155.908 main 771 771 ______P__P____ -1 -17.4468 155.906 -17.4704 155.910 TC 6 76
1915069S13153 1915 10 SP EA NOT_NAMED 1915-03-17 23:00:00 TS -17.4117 156.103 bom main 794 794 ______O__P____ -1 -17.4000 156.100 -17.4233 156.106 TC 6 76
1915069S13153 1915 10 SP EA NOT_NAMED 1915-03-18 00:00:00 TS -17.3916 156.198 main 801 801 ______P__O____ -1 -17.3832 156.197 -17.4000 156.200 TC 5 79
1915069S13153 1915 10 SP EA NOT_NAMED 1915-03-18 03:00:00 TS -17.3411 156.479 main 832 832 ______P__P____ -1 -17.3326 156.481 -17.3495 156.477 TC 5 79
1915069S13153 1915 10 SP EA NOT_NAMED 1915-03-18 06:00:00 TS -17.2893 156.747 main 838 814 ______P__P____ -1 -17.2806 156.753 -17.2981 156.740 TC 5 78
1915069S13153 1915 10 SP EA NOT_NAMED 1915-03-18 09:00:00 TS -17.2351 156.999 main 814 795 ______P__P____ -1 -17.2259 157.010 -17.2443 156.988 TC 5 76
1915069S13153 1915 10 SP EA NOT_NAMED 1915-03-18 12:00:00 TS -17.1772 157.232 main 795 781 ______P__P____ -1 -17.1673 157.247 -17.1871 157.217 TC 4 74
1915069S13153 1915 10 SP EA NOT_NAMED 1915-03-18 15:00:00 TS -17.1145 157.444 main 781 763 ______P__P____ -1 -17.1036 157.462 -17.1253 157.425 TC 4 71
1915069S13153 1915 10 SP EA NOT_NAMED 1915-03-18 18:00:00 TS -17.0457 157.631 main 768 750 ______P__P____ -1 -17.0337 157.651 -17.0576 157.610 TC 4 66
1915069S13153 1915 10 SP EA NOT_NAMED 1915-03-18 21:00:00 TS -16.9696 157.790 main 750 746 ______P__P____ -1 -16.9563 157.811 -16.9829 157.769 TC 3 61
1915069S13153 1915 10 SP EA NOT_NAMED 1915-03-18 23:00:00 TS -16.9143 157.880 bom main 746 746 ______O__P____ -1 -16.9000 157.900 -16.9286 157.860 TC 3 55
1915069S13153 1915 10 SP EA NOT_NAMED 1915-03-19 00:00:00 TS -16.8857 157.923 main 746 737 ______P__O____ -1 -16.8714 157.946 -16.9000 157.900 TC 3 53
1915069S13153 1915 10 SP EA NOT_NAMED 1915-03-19 03:00:00 TS -16.7960 158.045 main 743 734 ______P__P____ -1 -16.7803 158.062 -16.8116 158.029 TC 3 47
1915069S13153 1915 10 SP EA NOT_NAMED 1915-03-19 06:00:00 TS -16.6984 158.135 main 741 732 ______P__P____ -1 -16.6815 158.144 -16.7153 158.126 TC 2 34
1915069S13153 1915 10 SP EA NOT_NAMED 1915-03-19 09:00:00 TS -16.5933 158.187 main 738 738 ______P__P____ -1 -16.5751 158.190 -16.6114 158.185 TC 2 22
1915069S13153 1915 10 SP EA NOT_NAMED 1915-03-19 11:00:00 TS -16.5190 158.200 bom main 745 745 ______O__P____ -1 -16.5000 158.200 -16.5380 158.200 TC 2 0
1915069S13153 1915 10 SP EA NOT_NAMED 1915-03-19 12:00:00 TS -16.4791 158.204 main 745 737 ______P__O____ -1 -16.4581 158.208 -16.5000 158.200 TC 3 352
1915069S13153 1915 10 SP EA NOT_NAMED 1915-03-19 15:00:00 TS -16.3480 158.199 main 728 719 ______P__P____ -1 -16.3255 158.207 -16.3705 158.190 TC 3 348
1915069S13153 1915 10 SP EA NOT_NAMED 1915-03-19 18:00:00 TS -16.2139 158.151 main 719 715 ______P__P____ -1 -16.1919 158.167 -16.2359 158.135 TC 3 333
1915069S13153 1915 10 SP EA NOT_NAMED 1915-03-19 21:00:00 TS -16.0889 158.060 main 715 712 ______P__P____ -1 -16.0695 158.082 -16.1084 158.038 TC 3 320
1915069S13153 1915 10 SP EA NOT_NAMED 1915-03-19 23:00:00 TS -16.0166 157.975 bom main 712 712 ______O__P____ -1 -16.0000 158.000 -16.0333 157.950 TC 3 307
1915069S13153 1915 10 SP EA NOT_NAMED 1915-03-20 00:00:00 TS -15.9869 157.923 main 719 715 ______P__O____ -1 -15.9738 157.947 -16.0000 157.900 TC 4 292
1915069S13153 1915 10 SP EA NOT_NAMED 1915-03-20 03:00:00 TS -15.9226 157.729 main 719 719 ______P__P____ -1 -15.9141 157.744 -15.9310 157.713 TC 4 284
1915069S13153 1915 10 SP EA NOT_NAMED 1915-03-20 06:00:00 TS -15.8833 157.483 main 727 727 ______P__P____ -1 -15.8787 157.489 -15.8879 157.478 TC 5 277
1915069S13153 1915 10 SP EA NOT_NAMED 1915-03-20 09:00:00 TS -15.8642 157.202 main 738 738 ______P__P____ -1 -15.8626 157.197 -15.8658 157.207 TC 6 272
1915069S13153 1915 10 SP EA NOT_NAMED 1915-03-20 12:00:00 TS -15.8603 156.899 main 751 751 ______P__P____ -1 -15.8608 156.883 -15.8598 156.915 TC 6 270
1915069S13153 1915 10 SP EA NOT_NAMED 1915-03-20 15:00:00 TS -15.8668 156.589 main 766 766 ______P__P____ -1 -15.8686 156.563 -15.8649 156.615 TC 6 268
1915069S13153 1915 10 SP EA NOT_NAMED 1915-03-20 18:00:00 TS -15.8788 156.287 main 781 781 ______P__P____ -1 -15.8812 156.253 -15.8765 156.320 TC 6 267
1915069S13153 1915 10 SP EA NOT_NAMED 1915-03-20 21:00:00 TS -15.8918 156.006 main 797 797 ______P__P____ -1 -15.8938 155.968 -15.8897 156.044 TC 5 267
1915069S13153 1915 10 SP EA NOT_NAMED 1915-03-20 23:00:00 TS -15.8986 155.838 bom main 809 809 ______O__P____ -1 -15.9000 155.800 -15.8972 155.877 TC 5 268
1915069S13153 1915 10 SP EA NOT_NAMED 1915-03-21 00:00:00 TS -15.8993 155.771 main 809 795 ______P__O____ -1 -15.8986 155.743 -15.9000 155.800 TC 3 270
1915069S13153 1915 10 SP EA NOT_NAMED 1915-03-21 03:00:00 TS -15.8971 155.618 main 795 788 ______P__P____ -1 -15.8958 155.592 -15.8985 155.644 TC 3 271
1915069S13153 1915 10 SP EA NOT_NAMED 1915-03-21 06:00:00 TS -15.8961 155.492 main 788 781 ______P__P____ -1 -15.8937 155.470 -15.8985 155.515 TC 2 271
1915069S13153 1915 10 SP EA NOT_NAMED 1915-03-21 09:00:00 TS -15.8941 155.389 main 781 774 ______P__P____ -1 -15.8903 155.369 -15.8978 155.408 TC 2 272
1915069S13153 1915 10 SP EA NOT_NAMED 1915-03-21 12:00:00 TS -15.8889 155.301 main 774 767 ______P__P____ -1 -15.8837 155.283 -15.8940 155.318 TC 2 276
1915069S13153 1915 10 SP EA NOT_NAMED 1915-03-21 15:00:00 TS -15.8783 155.222 main 767 767 ______P__P____ -1 -15.8720 155.207 -15.8847 155.238 TC 2 281
1915069S13153 1915 10 SP EA NOT_NAMED 1915-03-21 18:00:00 TS -15.8603 155.148 main 760 752 ______P__P____ -1 -15.8530 155.133 -15.8675 155.162 TC 2 287
1915069S13153 1915 10 SP EA NOT_NAMED 1915-03-21 21:00:00 TS -15.8325 155.070 main 752 745 ______P__P____ -1 -15.8249 155.056 -15.8401 155.085 TC 2 293
1915069S13153 1915 10 SP EA NOT_NAMED 1915-03-21 23:00:00 TS -15.8075 155.015 bom main 745 745 ______O__P____ -1 -15.8000 155.000 -15.8149 155.029 TC 2 294
1915069S13153 1915 10 SP EA NOT_NAMED 1915-03-22 00:00:00 TS -15.7938 154.979 main 745 730 ______P__O____ -1 -15.7876 154.957 -15.8000 155.000 TC 3 291
1915069S13153 1915 10 SP EA NOT_NAMED 1915-03-22 03:00:00 TS -15.7463 154.846 main 723 716 ______P__P____ -1 -15.7444 154.824 -15.7481 154.869 TC 3 292
1915069S13153 1915 10 SP EA NOT_NAMED 1915-03-22 06:00:00 TS -15.6882 154.708 main 716 701 ______P__P____ -1 -15.6919 154.685 -15.6846 154.732 TC 3 296
1915069S13153 1915 10 SP EA NOT_NAMED 1915-03-22 09:00:00 TS -15.6199 154.569 main 701 679 ______P__P____ -1 -15.6298 154.546 -15.6100 154.592 TC 3 299
1915069S13153 1915 10 SP EA NOT_NAMED 1915-03-22 12:00:00 TS -15.5414 154.432 main 679 673 ______P__P____ -1 -15.5575 154.410 -15.5253 154.455 TC 3 303
1915069S13153 1915 10 SP EA NOT_NAMED 1915-03-22 15:00:00 TS -15.4529 154.302 main 673 657 ______P__P____ -1 -15.4748 154.281 -15.4311 154.323 TC 3 308
1915069S13153 1915 10 SP EA NOT_NAMED 1915-03-22 18:00:00 TS -15.3547 154.181 main 657 642 ______P__P____ -1 -15.3812 154.162 -15.3283 154.200 TC 3 314
1915069S13153 1915 10 SP EA NOT_NAMED 1915-03-22 21:00:00 TS -15.2470 154.075 main 633 627 ______P__P____ -1 -15.2763 154.059 -15.2177 154.091 TC 3 318
1915069S13153 1915 10 SP EA NOT_NAMED 1915-03-22 23:00:00 TS -15.1700 154.014 bom main 627 618 ______O__P____ -1 -15.2000 154.000 -15.1400 154.028 TC 3 322
1915069S13153 1915 10 SP EA NOT_NAMED 1915-03-23 00:00:00 TS -15.1298 153.987 main 618 602 ______P__O____ -1 -15.1596 153.975 -15.1000 154.000 TC 3 332
1915069S13153 1915 10 SP EA NOT_NAMED 1915-03-23 03:00:00 TS -15.0025 153.920 main 602 593 ______P__P____ -1 -15.0289 153.911 -14.9761 153.929 TC 3 337
1915069S13153 1915 10 SP EA NOT_NAMED 1915-03-23 06:00:00 TS -14.8664 153.869 main 593 569 ______P__P____ -1 -14.8861 153.862 -14.8467 153.876 TC 3 344
1915069S13153 1915 10 SP EA NOT_NAMED 1915-03-23 09:00:00 TS -14.7235 153.833 main 569 560 ______P__P____ -1 -14.7344 153.827 -14.7127 153.839 TC 3 349
1915069S13153 1915 10 SP EA NOT_NAMED 1915-03-23 12:00:00 TS -14.5758 153.810 main 560 542 ______P__P____ -1 -14.5768 153.804 -14.5748 153.815 TC 3 352
1915069S13153 1915 10 SP EA NOT_NAMED 1915-03-23 15:00:00 TS -14.4252 153.797 main 542 533 ______P__P____ -1 -14.4166 153.792 -14.4338 153.802 TC 3 0
1915069S13153 1915 10 SP EA NOT_NAMED 1915-03-23 18:00:00 TS -14.2737 153.793 main 533 516 ______P__P____ -1 -14.2569 153.789 -14.2905 153.797 TC 3 355
1915069S13153 1915 10 SP EA NOT_NAMED 1915-03-23 21:00:00 TS -14.1199 153.795 main 516 508 ______P__P____ -1 -14.1006 153.793 -14.1456 153.797 TC 3 0
1915069S13153 1915 10 SP EA NOT_NAMED 1915-03-23 23:00:00 TS -14.0162 153.800 bom main 508 508 ______O__P____ -1 -14.0000 153.800 -14.0486 153.799 TC 3 0
1915069S13153 1915 10 SP EA NOT_NAMED 1915-03-24 00:00:00 TS -13.9608 153.803 main 508 491 ______P__O____ -1 -13.9511 153.804 -14.0000 153.800 TC 3 0
1915069S13153 1915 10 SP EA NOT_NAMED 1915-03-24 03:00:00 NR -13.8096 153.820 main 491 483 ______P_______ -1 -13.8096 153.820 TC 3 8
1915069S13153 1915 10 SP EA NOT_NAMED 1915-03-24 06:00:00 NR -13.6755 153.840 main 483 476 ______P_______ -1 -13.6755 153.840 TC 3 9
1915069S13153 1915 10 SP EA NOT_NAMED 1915-03-24 09:00:00 NR -13.5475 153.863 main 476 468 ______P_______ -1 -13.5475 153.863 TC 3 8
1915069S13153 1915 10 SP EA NOT_NAMED 1915-03-24 12:00:00 NR -13.4246 153.889 main 468 461 ______P_______ -1 -13.4246 153.889 TC 2 12
1915069S13153 1915 10 SP EA NOT_NAMED 1915-03-24 15:00:00 NR -13.3058 153.918 main 461 454 ______P_______ -1 -13.3058 153.918 TC 2 13
1915069S13153 1915 10 SP EA NOT_NAMED 1915-03-24 18:00:00 NR -13.1898 153.948 main 454 454 ______P_______ -1 -13.1898 153.948 TC 2 14
1915069S13153 1915 10 SP EA NOT_NAMED 1915-03-24 21:00:00 NR -13.0756 153.979 main 455 448 ______P_______ -1 -13.0756 153.979 TC 2 16
1915069S13153 1915 10 SP EA NOT_NAMED 1915-03-24 23:00:00 NR -13.0000 154.000 bom main 448 ______O_______ -1 -13.0000 154.000 TC 2 17

デジタル台風データ・検索

IBTrACS Databaseについて

本データベースは、米国NOAAが公開する1842年以降の世界の熱帯低気圧のベストトラックデータアーカイブInternational Best Track Archive for Climate Stewardship (IBTrACS)を、ウェブで閲覧しやすい形式に変換したものです。

最終更新日:2021-10-27